Time;durP1;ratioP1;P1;durP2;ratioP2;P2;SDS_P1;SDS_P2;PMS_P1;PMS_P2;Temp;Humidity;BMP_temperature;BMP_pressure;BME280_temperature;BME280_humidity;BME280_pressure;Samples;Min_cycle;Max_cycle;Signal;HPM_P1;HPM_P2
2021/09/20 00:01:41;;;;;;;10.70;5.45;;;;;;;11.85;77.10;101402.31;4983118;28;20069;-74
2021/09/20 00:04:07;;;;;;;12.05;6.63;;;;;;;11.86;77.52;101410.97;4980145;28;20461;-74
2021/09/20 00:06:35;;;;;;;17.10;6.57;;;;;;;11.81;77.79;101409.31;4980602;28;20057;-75
2021/09/20 00:09:01;;;;;;;12.40;6.53;;;;;;;11.76;78.22;101413.72;4978512;28;20097;-74
2021/09/20 00:11:28;;;;;;;12.82;6.18;;;;;;;11.69;78.33;101409.47;4979912;28;20050;-72
2021/09/20 00:13:54;;;;;;;8.95;5.53;;;;;;;11.70;78.44;101420.75;4982211;28;20054;-74
2021/09/20 00:16:20;;;;;;;11.38;6.40;;;;;;;11.68;78.64;101418.16;4978730;28;20560;-74
2021/09/20 00:18:47;;;;;;;12.52;6.57;;;;;;;11.73;78.64;101411.13;4977798;28;20054;-74
2021/09/20 00:21:14;;;;;;;8.85;5.25;;;;;;;11.66;78.57;101419.91;4981928;28;20046;-74
2021/09/20 00:23:42;;;;;;;13.60;6.47;;;;;;;11.63;78.44;101420.81;4980742;28;20065;-74
2021/09/20 00:26:09;;;;;;;12.18;5.57;;;;;;;11.58;78.36;101421.75;4981200;28;20042;-73
2021/09/20 00:28:35;;;;;;;9.77;6.25;;;;;;;11.44;78.91;101417.56;4981836;28;20545;-74
2021/09/20 00:31:02;;;;;;;9.30;5.65;;;;;;;11.39;78.96;101411.56;4977233;28;20515;-74
2021/09/20 00:33:29;;;;;;;10.23;6.20;;;;;;;11.29;79.45;101409.94;4978622;28;20054;-74
2021/09/20 00:35:55;;;;;;;9.25;6.10;;;;;;;11.29;79.72;101410.78;4979838;28;20496;-74
2021/09/20 00:38:22;;;;;;;8.45;5.53;;;;;;;11.25;79.66;101418.66;4983325;28;20101;-73
2021/09/20 00:40:50;;;;;;;9.80;5.55;;;;;;;11.24;79.95;101414.34;4977248;28;20054;-73
2021/09/20 00:43:16;;;;;;;11.80;6.35;;;;;;;11.19;79.99;101414.38;4980875;28;20057;-73
2021/09/20 00:45:43;;;;;;;11.10;5.95;;;;;;;11.25;79.81;101416.94;4979649;28;20058;-74
2021/09/20 00:48:10;;;;;;;12.93;6.30;;;;;;;11.17;80.12;101410.97;4977655;28;20058;-74
2021/09/20 00:50:36;;;;;;;14.77;6.82;;;;;;;11.08;80.35;101421.47;4979535;28;20144;-74
2021/09/20 00:53:03;;;;;;;11.27;6.90;;;;;;;11.05;80.54;101414.53;4984363;28;20050;-74
2021/09/20 00:55:30;;;;;;;16.58;7.20;;;;;;;10.94;80.79;101418.97;4978145;28;20058;-73
2021/09/20 00:57:59;;;;;;;9.95;6.88;;;;;;;10.87;81.29;101416.44;4981863;28;20054;-74
2021/09/20 01:00:26;;;;;;;9.27;6.22;;;;;;;10.86;81.61;101417.31;4977415;28;20053;-74
2021/09/20 01:03:25;;;;;;;12.70;7.18;;;;;;;10.80;81.51;101406.97;4975655;28;20062;-74
2021/09/20 01:05:51;;;;;;;12.57;6.22;;;;;;;10.84;81.20;101413.88;4977298;28;20058;-74
2021/09/20 01:08:18;;;;;;;13.20;6.45;;;;;;;10.75;81.89;101415.72;4978552;28;20061;-74
2021/09/20 01:10:44;;;;;;;9.45;6.65;;;;;;;10.71;82.24;101412.28;4979307;28;20046;-74
2021/09/20 01:13:12;;;;;;;8.93;5.78;;;;;;;10.77;81.95;101414.81;4980499;28;20060;-74
2021/09/20 01:15:38;;;;;;;11.35;6.25;;;;;;;10.78;81.54;101413.94;4975683;28;20058;-74
2021/09/20 01:18:05;;;;;;;10.35;6.38;;;;;;;10.81;81.72;101429.53;4979197;28;20050;-74
2021/09/20 01:20:31;;;;;;;12.63;6.35;;;;;;;10.79;81.89;101425.19;4978226;28;20057;-74
2021/09/20 01:23:01;;;;;;;9.75;6.78;;;;;;;10.75;82.32;101416.56;4978198;28;20058;-74
2021/09/20 01:25:28;;;;;;;11.30;6.40;;;;;;;10.75;82.10;101420.91;4981233;28;20642;-74
2021/09/20 01:27:55;;;;;;;11.45;6.55;;;;;;;10.75;82.31;101419.16;4978794;28;20057;-74
2021/09/20 01:30:22;;;;;;;12.98;6.88;;;;;;;10.60;83.13;101419.31;4978395;28;20065;-75
2021/09/20 01:32:49;;;;;;;11.48;6.57;;;;;;;10.58;83.18;101421.94;4977743;28;20046;-73
2021/09/20 01:35:19;;;;;;;14.15;6.82;;;;;;;10.54;83.58;101423.66;4976950;28;20050;-74
2021/09/20 01:37:45;;;;;;;9.82;6.75;;;;;;;10.52;83.75;101421.97;4980566;28;20058;-74
2021/09/20 01:40:14;;;;;;;13.07;7.47;;;;;;;10.46;83.94;101412.47;4977007;28;20061;-74
2021/09/20 01:42:41;;;;;;;12.73;6.50;;;;;;;10.39;84.03;101421.19;4979366;28;20072;-75
2021/09/20 01:45:09;;;;;;;12.30;7.60;;;;;;;10.26;84.74;101421.25;4978131;28;20557;-74
2021/09/20 01:47:36;;;;;;;11.23;6.53;;;;;;;10.27;85.10;101417.78;4978352;28;20061;-73
2021/09/20 01:50:03;;;;;;;13.88;7.32;;;;;;;10.19;85.52;101411.78;4978502;28;20062;-74
2021/09/20 01:52:29;;;;;;;11.88;6.70;;;;;;;10.24;85.30;101417.78;4977534;28;20049;-75
2021/09/20 01:54:56;;;;;;;13.13;7.18;;;;;;;10.21;85.71;101422.16;4976874;28;20137;-73
2021/09/20 01:57:24;;;;;;;10.55;7.00;;;;;;;10.22;85.70;101422.16;4977841;28;20141;-74
2021/09/20 01:59:50;;;;;;;17.17;8.48;;;;;;;10.23;85.40;101415.19;4979081;28;20056;-73
2021/09/20 02:02:17;;;;;;;14.25;7.75;;;;;;;10.22;85.29;101419.56;4979843;28;20054;-76
2021/09/20 02:04:44;;;;;;;11.82;7.50;;;;;;;10.27;85.64;101411.72;4979862;28;20102;-75
2021/09/20 02:07:10;;;;;;;11.77;8.10;;;;;;;10.22;85.00;101422.16;4982969;28;20050;-75
2021/09/20 02:09:37;;;;;;;12.38;7.68;;;;;;;10.19;85.68;101418.69;4981297;28;20046;-75
2021/09/20 02:12:04;;;;;;;12.70;8.60;;;;;;;10.11;85.76;101416.16;4981881;28;20050;-76
2021/09/20 02:14:32;;;;;;;15.07;9.60;;;;;;;10.12;86.33;101420.50;4980823;28;20065;-75
2021/09/20 02:16:59;;;;;;;12.35;8.18;;;;;;;10.12;86.30;101412.69;4981531;28;20101;-76
2021/09/20 02:19:25;;;;;;;17.00;8.52;;;;;;;10.14;85.96;101415.28;4978921;28;20050;-77
2021/09/20 02:21:52;;;;;;;13.70;8.32;;;;;;;10.14;85.93;101421.31;4984096;28;20053;-75
2021/09/20 02:24:18;;;;;;;16.90;8.77;;;;;;;10.13;85.84;101421.34;4981656;28;20057;-75
2021/09/20 02:26:44;;;;;;;16.65;8.88;;;;;;;10.13;86.09;101419.63;4978035;28;20061;-76
2021/09/20 02:29:11;;;;;;;15.13;8.85;;;;;;;10.12;85.79;101417.88;4977721;28;20074;-75
2021/09/20 02:31:39;;;;;;;15.20;8.38;;;;;;;10.14;85.57;101413.53;4980290;28;20050;-76
2021/09/20 02:34:06;;;;;;;18.60;9.25;;;;;;;10.14;85.62;101413.53;4979806;28;20058;-76
2021/09/20 02:36:32;;;;;;;12.88;8.50;;;;;;;10.14;85.60;101410.91;4979752;28;20058;-75
2021/09/20 02:38:58;;;;;;;16.98;8.70;;;;;;;10.07;85.81;101415.31;4981876;28;20057;-76
2021/09/20 02:41:26;;;;;;;15.95;9.02;;;;;;;10.10;85.93;101410.06;4981459;28;20092;-75
2021/09/20 02:43:52;;;;;;;16.23;9.60;;;;;;;10.10;85.90;101409.22;4982417;28;20054;-75
2021/09/20 02:46:18;;;;;;;20.10;10.68;;;;;;;10.14;85.56;101405.72;4980370;28;20046;-76
2021/09/20 02:48:46;;;;;;;13.15;8.77;;;;;;;10.18;85.28;101402.25;4978862;28;20079;-77
2021/09/20 02:51:13;;;;;;;13.77;9.50;;;;;;;10.15;85.13;101407.44;4983467;28;20046;-76
2021/09/20 02:53:40;;;;;;;14.55;9.15;;;;;;;10.16;85.33;101409.19;4977457;28;20061;-75
2021/09/20 02:56:07;;;;;;;16.38;9.23;;;;;;;10.21;85.53;101414.34;4981947;28;20509;-76
2021/09/20 02:58:34;;;;;;;16.10;9.15;;;;;;;10.17;85.65;101416.09;4980932;28;20587;-75
2021/09/20 03:01:00;;;;;;;15.50;8.95;;;;;;;10.15;85.69;101402.25;4978805;28;20456;-76
2021/09/20 03:03:27;;;;;;;16.77;8.60;;;;;;;10.14;85.58;101418.72;4979626;28;20097;-75
2021/09/20 03:05:54;;;;;;;13.93;9.32;;;;;;;10.16;85.19;101418.72;4977394;28;20066;-75
2021/09/20 03:08:21;;;;;;;14.65;9.43;;;;;;;10.22;85.30;101421.28;4981282;28;20270;-75
2021/09/20 03:10:47;;;;;;;15.57;9.50;;;;;;;10.25;85.59;101421.25;4977623;28;20081;-75
2021/09/20 03:13:14;;;;;;;16.33;9.45;;;;;;;10.34;85.25;101417.72;4981617;28;20061;-75
2021/09/20 03:15:40;;;;;;;17.25;9.48;;;;;;;10.34;84.76;101416.00;4978933;28;20050;-75
2021/09/20 03:18:07;;;;;;;18.25;9.65;;;;;;;10.38;84.75;101422.06;4981483;28;20054;-75
2021/09/20 03:20:33;;;;;;;15.55;9.75;;;;;;;10.33;84.69;101422.06;4981483;28;20050;-76
2021/09/20 03:23:01;;;;;;;13.65;8.93;;;;;;;10.27;84.70;101427.31;4980626;28;20046;-76
2021/09/20 03:25:27;;;;;;;17.23;8.65;;;;;;;10.23;84.85;101425.59;4982136;28;20050;-75
2021/09/20 03:27:54;;;;;;;15.93;9.45;;;;;;;10.22;85.01;101422.16;4977339;28;20486;-74
2021/09/20 03:30:20;;;;;;;13.25;8.98;;;;;;;10.21;85.52;101428.22;4979597;28;20465;-72
2021/09/20 03:32:47;;;;;;;15.40;9.77;;;;;;;10.20;85.36;101438.63;4999159;22;20038;-75
2021/09/20 03:35:15;;;;;;;16.80;9.60;;;;;;;10.18;85.78;101435.19;4992703;28;20065;-76
2021/09/20 03:37:42;;;;;;;16.42;9.60;;;;;;;10.20;85.24;101446.41;4993378;28;20049;-75
2021/09/20 03:40:12;;;;;;;17.88;9.55;;;;;;;10.20;85.40;101443.81;5003016;28;20061;-76
2021/09/20 03:42:39;;;;;;;14.32;8.93;;;;;;;10.19;85.58;101452.47;4996664;28;21074;-75
2021/09/20 03:45:07;;;;;;;18.98;10.38;;;;;;;10.20;85.47;101452.50;4995107;28;20054;-75
2021/09/20 03:47:33;;;;;;;17.20;9.07;;;;;;;10.13;85.71;101448.22;4999646;28;20050;-76
2021/09/20 03:50:00;;;;;;;16.88;9.40;;;;;;;10.11;85.61;101455.16;5002217;28;20085;-75
2021/09/20 03:52:27;;;;;;;16.00;9.10;;;;;;;10.08;85.49;101449.97;5002962;28;20060;-74
2021/09/20 03:54:53;;;;;;;14.52;9.40;;;;;;;10.10;85.73;101456.03;5001833;28;20060;-76
2021/09/20 03:57:21;;;;;;;17.30;9.57;;;;;;;10.01;86.22;101449.13;4997834;28;20093;-75
2021/09/20 03:59:47;;;;;;;15.68;9.10;;;;;;;10.04;86.16;101456.91;4999794;28;20053;-75
2021/09/20 04:02:14;;;;;;;15.38;8.68;;;;;;;10.05;86.10;101455.16;4994642;28;20057;-75
2021/09/20 04:04:40;;;;;;;17.48;9.60;;;;;;;10.03;85.91;101451.75;4997919;28;20050;-75
2021/09/20 04:07:07;;;;;;;17.58;10.50;;;;;;;9.99;85.80;101452.63;5002385;28;20057;-76
2021/09/20 04:09:34;;;;;;;17.65;10.07;;;;;;;9.90;86.35;101459.59;5001971;28;20084;-76
2021/09/20 04:12:00;;;;;;;15.15;9.23;;;;;;;9.83;86.69;101457.91;5001436;28;20422;-76
2021/09/20 04:14:28;;;;;;;18.42;9.80;;;;;;;9.84;86.31;101459.59;4999630;28;20084;-75
2021/09/20 04:16:55;;;;;;;19.83;10.10;;;;;;;9.83;86.60;101454.41;4999103;28;20061;-75
2021/09/20 04:19:21;;;;;;;16.00;9.77;;;;;;;9.78;87.05;101459.63;5000487;28;20061;-75
2021/09/20 04:21:48;;;;;;;16.20;10.43;;;;;;;9.74;86.65;101463.09;5001998;28;20049;-75
2021/09/20 04:24:14;;;;;;;17.67;9.70;;;;;;;9.78;86.27;101459.63;5000572;28;20289;-75
2021/09/20 04:26:40;;;;;;;22.13;10.35;;;;;;;9.71;86.71;101458.78;5001648;28;20062;-75
2021/09/20 04:29:07;;;;;;;16.52;10.10;;;;;;;9.63;86.69;101471.81;4999745;28;20056;-75
2021/09/20 04:31:35;;;;;;;20.38;10.80;;;;;;;9.59;86.78;101469.22;5006411;28;20049;-76
2021/09/20 04:34:01;;;;;;;18.15;9.80;;;;;;;9.54;86.94;101466.63;5005980;28;20049;-75
2021/09/20 04:36:28;;;;;;;20.08;10.85;;;;;;;9.54;87.32;101468.38;5002459;28;20542;-75
2021/09/20 04:38:54;;;;;;;16.60;10.88;;;;;;;9.54;87.85;101471.84;5005216;28;20497;-75
2021/09/20 04:41:20;;;;;;;18.90;11.10;;;;;;;9.53;87.52;101470.13;5007660;28;20069;-75
2021/09/20 04:43:47;;;;;;;18.60;11.48;;;;;;;9.55;88.13;101478.75;5004614;28;20050;-74
2021/09/20 04:46:13;;;;;;;18.92;10.40;;;;;;;9.58;87.66;101485.69;5004456;28;20675;-75
2021/09/20 04:48:41;;;;;;;14.68;9.32;;;;;;;9.54;87.69;101487.41;5002232;28;20046;-75
2021/09/20 04:51:08;;;;;;;17.50;9.57;;;;;;;9.48;88.07;101485.69;4999929;28;20065;-75
2021/09/20 04:53:34;;;;;;;17.85;10.45;;;;;;;9.49;87.85;101483.97;5009291;28;20046;-75
2021/09/20 04:56:01;;;;;;;14.27;9.27;;;;;;;9.58;88.16;101490.91;5009032;28;20057;-75
2021/09/20 04:58:27;;;;;;;16.80;9.52;;;;;;;9.53;88.07;101498.69;4993521;28;20057;-74
2021/09/20 05:00:54;;;;;;;15.52;10.23;;;;;;;9.55;87.80;101498.69;4992486;28;20540;-74
2021/09/20 05:03:20;;;;;;;21.17;10.38;;;;;;;9.60;87.71;101497.81;4993009;28;20047;-75
2021/09/20 05:05:48;;;;;;;13.77;9.50;;;;;;;9.56;88.12;101495.22;5007991;28;20622;-74
2021/09/20 05:08:17;;;;;;;16.45;9.57;;;;;;;9.52;87.86;101496.97;5011566;28;20052;-76
2021/09/20 05:10:44;;;;;;;16.35;9.23;;;;;;;9.50;88.21;101496.09;5006198;28;20519;-74
2021/09/20 05:13:10;;;;;;;17.27;10.07;;;;;;;9.53;88.18;101500.41;4996918;28;20046;-75
2021/09/20 05:15:37;;;;;;;16.67;10.20;;;;;;;9.49;88.78;101490.03;5011396;28;20058;-75
2021/09/20 05:18:03;;;;;;;14.80;9.88;;;;;;;9.50;88.61;101496.09;5005819;28;20054;-74
2021/09/20 05:20:30;;;;;;;15.20;9.38;;;;;;;9.41;89.25;101496.97;5001527;28;20057;-75
2021/09/20 05:22:58;;;;;;;14.90;9.70;;;;;;;9.41;89.06;101507.38;5011753;28;20042;-74
2021/09/20 05:25:24;;;;;;;16.65;9.45;;;;;;;9.35;89.65;101494.41;5005652;28;20061;-74
2021/09/20 05:27:51;;;;;;;19.05;10.02;;;;;;;9.38;89.80;101503.91;5011469;28;20054;-74
2021/09/20 05:30:18;;;;;;;18.70;10.45;;;;;;;9.41;89.25;101499.56;4995257;28;20050;-74
2021/09/20 05:32:46;;;;;;;15.48;8.43;;;;;;;9.36;89.86;101508.22;4991953;28;20073;-75
2021/09/20 05:35:14;;;;;;;14.88;9.90;;;;;;;9.45;89.70;101501.31;4992956;28;20051;-74
2021/09/20 05:37:41;;;;;;;15.73;9.60;;;;;;;9.48;88.72;101497.84;4998193;28;20046;-75
2021/09/20 05:40:10;;;;;;;20.38;10.40;;;;;;;9.57;88.91;101502.16;5009287;28;20096;-74
2021/09/20 05:42:37;;;;;;;15.77;10.27;;;;;;;9.60;88.55;101513.38;5008060;28;20493;-73
2021/09/20 05:45:04;;;;;;;18.35;10.18;;;;;;;9.64;88.42;101512.50;5011250;28;20061;-74
2021/09/20 05:47:30;;;;;;;22.13;10.40;;;;;;;9.64;88.96;101515.09;5010214;28;20069;-73
2021/09/20 05:49:57;;;;;;;20.27;9.52;;;;;;;9.75;88.29;101509.00;4999552;28;20073;-73
2021/09/20 05:52:25;;;;;;;15.60;9.82;;;;;;;9.81;88.08;101509.00;4993996;28;20046;-73
2021/09/20 05:54:52;;;;;;;17.88;10.48;;;;;;;9.82;88.16;101512.44;5002947;28;20054;-74
2021/09/20 05:57:20;;;;;;;17.35;10.38;;;;;;;9.91;87.91;101513.28;5007250;28;20049;-73
2021/09/20 05:59:46;;;;;;;15.98;9.73;;;;;;;10.09;87.44;101521.88;5010686;28;20050;-73
2021/09/20 06:02:15;;;;;;;18.02;10.27;;;;;;;10.07;87.05;101518.41;5009003;28;20045;-74
2021/09/20 06:04:42;;;;;;;15.77;10.27;;;;;;;10.14;87.04;101522.69;5013522;28;20073;-73
2021/09/20 06:07:08;;;;;;;14.68;9.55;;;;;;;10.19;86.26;101528.75;5011169;28;20061;-73
2021/09/20 06:09:35;;;;;;;17.90;10.48;;;;;;;10.19;86.28;101525.28;5013162;28;20053;-73
2021/09/20 06:12:03;;;;;;;18.88;10.07;;;;;;;10.26;86.72;101527.00;5016935;28;20042;-74
2021/09/20 06:14:31;;;;;;;16.20;9.82;;;;;;;10.35;85.85;101529.56;5014388;28;20042;-73
2021/09/20 06:16:57;;;;;;;21.05;11.30;;;;;;;10.35;85.60;101533.88;5009970;28;20046;-74
2021/09/20 06:19:24;;;;;;;15.55;9.32;;;;;;;10.40;85.75;101538.19;5013429;28;20072;-73
2021/09/20 06:21:50;;;;;;;14.93;9.75;;;;;;;10.49;85.48;101532.09;5016600;28;20042;-74
2021/09/20 06:24:17;;;;;;;20.65;10.05;;;;;;;10.94;94.37;101534.38;5027284;28;20022;-77
2021/09/20 06:26:44;;;;;;;16.33;9.52;;;;;;;11.11;85.94;101528.16;5012420;28;20460;-73
2021/09/20 06:29:10;;;;;;;15.10;10.05;;;;;;;11.14;82.39;101531.59;5006528;28;20053;-74
2021/09/20 06:31:39;;;;;;;15.10;9.45;;;;;;;11.12;81.76;101533.38;5009356;28;20046;-74
2021/09/20 06:34:06;;;;;;;15.65;8.90;;;;;;;11.16;81.89;101535.06;5002180;28;20075;-74
2021/09/20 06:36:34;;;;;;;16.17;10.70;;;;;;;11.14;81.95;101539.41;5006054;28;20050;-74
2021/09/20 06:39:00;;;;;;;16.48;9.35;;;;;;;11.17;81.30;101539.41;4999495;28;20054;-74
2021/09/20 06:41:27;;;;;;;17.73;9.85;;;;;;;11.21;80.71;101537.63;5001069;28;20666;-74
2021/09/20 06:43:53;;;;;;;15.70;9.60;;;;;;;11.20;80.77;101544.59;5001279;28;20050;-74
2021/09/20 06:46:20;;;;;;;14.35;9.20;;;;;;;11.26;80.35;101542.78;5001616;28;20177;-74
2021/09/20 06:48:47;;;;;;;15.27;8.43;;;;;;;11.43;79.89;101543.50;5002908;28;20049;-71
2021/09/20 06:51:14;;;;;;;13.18;8.50;;;;;;;11.40;78.52;101553.97;5007760;28;20057;-74
2021/09/20 06:53:40;;;;;;;15.02;8.60;;;;;;;11.40;78.72;101553.97;5007752;28;20042;-74
2021/09/20 06:56:07;;;;;;;11.43;8.02;;;;;;;11.44;78.28;101553.03;5006822;28;20501;-74
2021/09/20 06:58:35;;;;;;;13.77;8.90;;;;;;;11.57;78.90;101560.75;5004912;28;20050;-74
2021/09/20 07:01:01;;;;;;;15.18;7.65;;;;;;;11.54;77.64;101555.53;5000677;28;20510;-75
2021/09/20 07:03:28;;;;;;;13.63;7.70;;;;;;;11.60;77.59;101552.91;5001271;28;20436;-74
2021/09/20 07:05:55;;;;;;;13.73;9.02;;;;;;;11.62;77.84;101562.41;5005677;28;20758;-73
2021/09/20 07:08:22;;;;;;;19.63;8.50;;;;;;;11.68;76.60;101558.88;4998394;28;20080;-75
2021/09/20 07:10:48;;;;;;;15.88;8.18;;;;;;;11.72;76.31;101562.31;5001564;28;20073;-74
2021/09/20 07:13:15;;;;;;;12.95;8.32;;;;;;;11.68;76.05;101563.25;5004118;28;20516;-73
2021/09/20 07:15:41;;;;;;;13.75;7.75;;;;;;;11.77;76.30;101565.75;5003518;28;20505;-74
2021/09/20 07:18:08;;;;;;;14.13;7.78;;;;;;;11.89;75.77;101563.00;5002326;28;20050;-74
2021/09/20 07:20:35;;;;;;;14.63;8.00;;;;;;;11.92;74.85;101564.72;5005862;28;20104;-75
2021/09/20 07:23:03;;;;;;;15.32;8.73;;;;;;;11.92;75.28;101569.94;5006764;28;20050;-72
2021/09/20 07:25:30;;;;;;;14.35;7.88;;;;;;;11.82;74.66;101567.44;4999861;28;20061;-75
2021/09/20 07:27:56;;;;;;;12.43;7.53;;;;;;;11.97;74.40;101576.84;5001698;28;20133;-71
2021/09/20 07:30:23;;;;;;;12.60;8.32;;;;;;;12.09;74.55;101574.97;5003824;28;20057;-72
2021/09/20 07:32:52;;;;;;;13.65;7.80;;;;;;;12.23;73.98;101578.28;5003941;28;20053;-73
2021/09/20 07:35:19;;;;;;;13.63;8.57;;;;;;;12.23;73.13;101590.44;5002133;28;20042;-75
2021/09/20 07:37:48;;;;;;;15.90;8.15;;;;;;;12.27;73.52;101579.09;5000629;28;20050;-74
2021/09/20 07:40:17;;;;;;;13.25;7.15;;;;;;;12.32;73.08;101585.13;5008523;28;20066;-75
2021/09/20 07:42:44;;;;;;;17.73;8.88;;;;;;;12.29;73.06;101588.63;5000648;28;20062;-75
2021/09/20 07:45:12;;;;;;;16.00;7.85;;;;;;;12.29;72.98;101580.78;5003172;28;20520;-74
2021/09/20 07:47:38;;;;;;;14.25;8.13;;;;;;;12.34;73.58;101590.31;5001457;28;20493;-74
2021/09/20 07:50:07;;;;;;;11.95;7.32;;;;;;;12.40;72.53;101588.50;5006588;28;20054;-74
2021/09/20 07:52:34;;;;;;;13.98;8.05;;;;;;;12.41;72.53;101587.63;5002472;28;20053;-75
2021/09/20 07:55:01;;;;;;;14.80;7.68;;;;;;;12.40;71.34;101592.84;5001341;28;20053;-74
2021/09/20 07:57:29;;;;;;;13.02;7.82;;;;;;;12.38;71.63;101598.09;5005551;28;20048;-74
2021/09/20 07:59:55;;;;;;;16.98;8.40;;;;;;;12.42;70.87;101598.91;5002033;28;20045;-75
2021/09/20 08:02:22;;;;;;;13.40;8.13;;;;;;;12.44;70.70;101598.00;5000907;28;20126;-75
2021/09/20 08:04:48;;;;;;;13.10;8.43;;;;;;;12.61;70.77;101607.38;5003687;28;20061;-74
2021/09/20 08:07:15;;;;;;;12.52;7.93;;;;;;;12.68;70.03;101609.00;5000451;28;20070;-73
2021/09/20 08:09:41;;;;;;;11.55;7.80;;;;;;;12.74;69.48;101610.66;5003504;28;20512;-74
2021/09/20 08:12:09;;;;;;;14.80;8.00;;;;;;;12.79;68.98;101619.28;5001278;28;20054;-75
2021/09/20 08:14:36;;;;;;;13.85;8.95;;;;;;;12.95;69.07;101603.41;5002719;28;20053;-75
2021/09/20 08:17:03;;;;;;;11.45;7.78;;;;;;;12.99;68.16;101608.56;5001829;28;20047;-75
2021/09/20 08:19:30;;;;;;;12.15;7.85;;;;;;;13.11;68.90;101609.25;5001274;28;20140;-75
2021/09/20 08:21:56;;;;;;;13.20;7.15;;;;;;;13.26;68.16;101615.97;5001541;28;20056;-75
2021/09/20 08:24:23;;;;;;;12.70;8.07;;;;;;;13.36;68.27;101621.00;5000052;28;20050;-74
2021/09/20 08:26:49;;;;;;;13.90;7.20;;;;;;;13.45;67.24;101619.16;5002953;28;20046;-75
2021/09/20 08:29:16;;;;;;;11.35;7.30;;;;;;;13.59;66.90;101621.53;5003716;28;20053;-75
2021/09/20 08:31:44;;;;;;;12.00;7.45;;;;;;;13.53;66.26;101617.28;5000550;28;20054;-75
2021/09/20 08:34:10;;;;;;;13.88;7.85;;;;;;;13.53;65.61;101625.13;5001331;28;20050;-73
2021/09/20 08:36:37;;;;;;;15.02;7.20;;;;;;;13.50;65.86;101633.03;4998194;28;20058;-74
2021/09/20 08:39:04;;;;;;;15.70;7.22;;;;;;;13.62;65.38;101631.94;5001153;28;20069;-75
2021/09/20 08:41:31;;;;;;;11.88;7.07;;;;;;;13.60;65.83;101637.22;5002217;28;20061;-74
2021/09/20 08:43:58;;;;;;;11.38;7.20;;;;;;;13.76;66.01;101629.09;5004517;28;20452;-75
2021/09/20 08:46:24;;;;;;;16.98;7.03;;;;;;;13.85;66.10;101628.91;5009384;28;20088;-74
2021/09/20 08:48:52;;;;;;;13.82;7.38;;;;;;;13.97;64.16;101641.75;5006877;28;20050;-74
2021/09/20 08:51:20;;;;;;;16.52;7.45;;;;;;;14.07;64.27;101639.84;5003496;28;20050;-74
2021/09/20 08:53:49;;;;;;;13.00;7.60;;;;;;;14.16;64.35;101641.41;5003073;28;20042;-75
2021/09/20 08:56:16;;;;;;;14.45;6.90;;;;;;;14.34;64.46;101647.16;5002289;28;20081;-75
2021/09/20 08:58:42;;;;;;;12.63;6.43;;;;;;;14.31;62.84;101642.84;5003100;28;20514;-75
2021/09/20 09:01:09;;;;;;;11.07;5.75;;;;;;;14.35;62.54;101648.88;4999561;28;20054;-75
2021/09/20 09:03:35;;;;;;;13.45;6.18;;;;;;;14.21;61.47;101657.00;5000075;28;20046;-75
2021/09/20 09:06:03;;;;;;;11.48;6.47;;;;;;;14.14;62.12;101651.03;5000815;28;20050;-74
2021/09/20 09:08:35;;;;;;;9.98;6.03;;;;;;;14.09;62.07;101658.97;5002705;28;20425;-74
2021/09/20 09:11:05;;;;;;;12.40;6.60;;;;;;;14.04;62.55;101658.22;5002900;28;20053;-75
2021/09/20 09:13:37;;;;;;;13.13;6.90;;;;;;;14.11;60.81;101653.72;4999865;28;20049;-74
2021/09/20 09:16:15;;;;;;;11.77;6.18;;;;;;;14.23;61.72;101663.09;5001551;28;20050;-75
2021/09/20 09:19:03;;;;;;;10.50;6.55;;;;;;;14.24;60.30;101655.19;4994877;28;20054;-75
2021/09/20 09:21:33;;;;;;;11.85;6.18;;;;;;;14.48;61.16;101660.84;5001182;28;20081;-74
2021/09/20 09:24:04;;;;;;;10.45;6.07;;;;;;;14.55;60.59;101665.03;5004301;28;20421;-75
2021/09/20 09:26:30;;;;;;;12.75;6.22;;;;;;;14.57;60.28;101660.63;5001151;28;20120;-75
2021/09/20 09:29:09;;;;;;;9.95;6.10;;;;;;;14.70;59.52;101665.66;4997828;28;20047;-74
2021/09/20 09:31:36;;;;;;;9.32;6.10;;;;;;;14.78;60.06;101668.97;4999970;28;20576;-75
2021/09/20 09:34:15;;;;;;;8.48;5.45;;;;;;;15.04;58.96;101671.00;5005336;28;20096;-73
2021/09/20 09:36:44;;;;;;;14.45;6.43;;;;;;;15.05;59.71;101675.34;4995324;28;20081;-74
2021/09/20 09:39:11;;;;;;;11.90;5.90;;;;;;;15.17;59.00;101673.34;5000736;28;20054;-75
2021/09/20 09:41:40;;;;;;;7.78;5.30;;;;;;;15.28;58.28;101670.47;5005852;28;20042;-74
2021/09/20 09:44:09;;;;;;;10.93;5.65;;;;;;;15.36;58.30;101674.63;5005351;28;20394;-75
2021/09/20 09:46:38;;;;;;;11.38;6.18;;;;;;;15.36;57.23;101674.63;4999410;28;20046;-72
2021/09/20 09:49:11;;;;;;;13.90;6.10;;;;;;;15.44;56.92;101678.81;5002486;28;20054;-75
2021/09/20 09:51:57;;;;;;;9.07;5.53;;;;;;;15.54;56.59;101675.91;5002302;28;20053;-75
2021/09/20 09:54:28;;;;;;;12.88;5.45;;;;;;;15.52;56.37;101677.72;5000167;28;20054;-76
2021/09/20 09:57:12;;;;;;;8.50;5.18;;;;;;;15.60;56.77;101677.53;5001614;28;20050;-73
2021/09/20 09:59:39;;;;;;;8.95;5.03;;;;;;;15.75;55.71;101678.06;4997373;28;20061;-74
2021/09/20 10:02:17;;;;;;;9.70;5.03;;;;;;;15.84;54.18;101676.06;4998369;28;20437;-75
2021/09/20 10:04:52;;;;;;;8.05;4.70;;;;;;;15.83;54.27;101681.34;4998297;28;20509;-73
2021/09/20 10:07:25;;;;;;;7.22;4.13;;;;;;;15.70;54.01;101670.31;5000790;28;20058;-75
2021/09/20 10:09:51;;;;;;;11.45;4.63;;;;;;;15.74;53.88;101677.16;5005692;28;20060;-74
2021/09/20 10:12:19;;;;;;;7.55;4.30;;;;;;;15.71;54.09;101679.91;5005236;28;20058;-75
2021/09/20 10:14:48;;;;;;;9.07;4.28;;;;;;;15.79;54.86;101682.31;5001507;28;20038;-74
2021/09/20 10:17:18;;;;;;;10.88;4.15;;;;;;;15.85;54.98;101672.53;4998592;28;20524;-75
2021/09/20 10:19:45;;;;;;;10.07;4.32;;;;;;;15.87;53.02;101684.75;5000513;28;20065;-74
2021/09/20 10:22:13;;;;;;;6.97;4.35;;;;;;;15.48;52.60;101676.09;5002116;28;20054;-75
2021/09/20 10:24:41;;;;;;;6.68;4.10;;;;;;;15.27;53.19;101685.34;4999689;28;20042;-73
2021/09/20 10:27:09;;;;;;;7.40;4.35;;;;;;;15.09;53.84;101678.75;5004913;28;20053;-75
2021/09/20 10:29:36;;;;;;;6.70;4.20;;;;;;;15.14;54.05;101676.88;5003452;28;20049;-75
2021/09/20 10:32:03;;;;;;;8.90;4.22;;;;;;;15.04;54.66;101675.38;5009535;28;20057;-76
2021/09/20 10:34:31;;;;;;;11.35;4.32;;;;;;;15.13;54.86;101680.41;5007900;28;20042;-75
2021/09/20 10:37:07;;;;;;;6.97;4.10;;;;;;;15.20;54.89;101679.38;5003887;28;20052;-74
2021/09/20 10:39:56;;;;;;;9.38;4.07;;;;;;;15.26;55.39;101672.25;5005206;28;20057;-75
2021/09/20 10:42:52;;;;;;;6.82;4.20;;;;;;;15.30;54.77;101671.28;5003683;28;20105;-76
2021/09/20 10:45:55;;;;;;;6.90;4.47;;;;;;;15.32;53.67;101683.47;4998772;28;20494;-75
2021/09/20 10:48:28;;;;;;;9.43;4.82;;;;;;;15.29;53.40;101675.66;4926093;29;20099;-75
2021/09/20 10:50:58;;;;;;;12.18;4.63;;;;;;;15.27;52.41;101690.59;4993574;28;20056;-75
2021/09/20 10:53:32;;;;;;;6.75;4.80;;;;;;;15.22;51.82;101688.03;5006844;28;20540;-75
2021/09/20 10:56:18;;;;;;;7.70;4.65;;;;;;;15.21;52.84;101685.47;5004444;28;20394;-75
2021/09/20 10:59:12;;;;;;;6.57;4.60;;;;;;;15.16;51.79;101679.47;5007542;28;20531;-75
2021/09/20 11:01:40;;;;;;;8.00;4.60;;;;;;;15.14;52.39;101676.88;5001805;28;20109;-76
2021/09/20 11:04:15;;;;;;;6.78;4.45;;;;;;;15.23;52.77;101671.41;5004482;28;20133;-76
2021/09/20 11:06:43;;;;;;;6.95;4.53;;;;;;;15.29;52.94;101669.56;5001472;28;20047;-73
2021/09/20 11:09:47;;;;;;;9.52;4.95;;;;;;;15.33;52.95;101676.44;5003479;28;20096;-75
2021/09/20 11:12:18;;;;;;;10.80;4.68;;;;;;;15.36;52.35;101677.25;4988285;28;20532;-75
2021/09/20 11:15:05;;;;;;;7.90;4.32;;;;;;;15.42;51.80;101681.50;5002230;28;20078;-76
2021/09/20 11:17:46;;;;;;;10.20;5.00;;;;;;;15.38;52.24;101690.31;5004344;28;20588;-75
2021/09/20 11:20:32;;;;;;;8.40;5.20;;;;;;;15.33;51.76;101685.19;5002320;28;20061;-76
2021/09/20 11:23:22;;;;;;;8.48;4.45;;;;;;;15.17;51.57;101683.84;5003806;28;20046;-76
2021/09/20 11:26:12;;;;;;;8.02;4.35;;;;;;;15.17;51.31;101686.47;5004268;28;20104;-75